Time;durP1;ratioP1;P1;durP2;ratioP2;P2;SDS_P1;SDS_P2;PMS_P1;PMS_P2;Temp;Humidity;BMP_temperature;BMP_pressure;BME280_temperature;BME280_humidity;BME280_pressure;Samples;Min_cycle;Max_cycle;Signal;HPM_P1;HPM_P2
2023/11/29 00:00:50;;;;;;;43.65;27.80;;;5.60;99.90;;;;;;5086030;28;20060;-75
2023/11/29 00:03:17;;;;;;;45.25;30.77;;;5.60;99.90;;;;;;5085963;28;20038;-75
2023/11/29 00:05:44;;;;;;;24.58;18.67;;;5.60;99.90;;;;;;5076496;28;20406;-76
2023/11/29 00:08:12;;;;;;;16.30;13.35;;;5.60;99.90;;;;;;5089403;28;20455;-75
2023/11/29 00:10:40;;;;;;;15.45;12.10;;;5.60;99.90;;;;;;5086733;28;20083;-75
2023/11/29 00:13:07;;;;;;;17.25;12.13;;;5.70;99.90;;;;;;5088554;28;20028;-74
2023/11/29 00:15:35;;;;;;;13.45;10.90;;;5.70;99.90;;;;;;5087549;28;20038;-77
2023/11/29 00:18:02;;;;;;;13.95;11.40;;;5.60;99.90;;;;;;5091025;28;20028;-78
2023/11/29 00:20:30;;;;;;;13.23;10.77;;;5.60;99.90;;;;;;5086164;28;20451;-78
2023/11/29 00:22:57;;;;;;;14.45;11.57;;;5.60;99.90;;;;;;5084474;28;20037;-80
2023/11/29 00:25:25;;;;;;;14.82;11.23;;;5.60;99.90;;;;;;5085142;28;20031;-76
2023/11/29 00:27:52;;;;;;;14.35;11.60;;;5.50;99.90;;;;;;5085706;28;20042;-77
2023/11/29 00:30:19;;;;;;;14.45;10.88;;;5.50;99.90;;;;;;5085218;28;20382;-77
2023/11/29 00:32:46;;;;;;;16.33;12.35;;;5.50;99.90;;;;;;5089306;28;20028;-77
2023/11/29 00:35:14;;;;;;;14.48;11.25;;;5.60;99.90;;;;;;5084635;28;20036;-78
2023/11/29 00:37:41;;;;;;;16.80;12.40;;;5.60;99.90;;;;;;5083460;28;20029;-78
2023/11/29 00:40:09;;;;;;;17.42;12.00;;;5.70;99.90;;;;;;5088098;28;20096;-78
2023/11/29 00:42:36;;;;;;;14.88;11.90;;;5.60;99.90;;;;;;5085472;28;20375;-77
2023/11/29 00:45:04;;;;;;;15.57;12.90;;;5.60;99.90;;;;;;5086567;28;20101;-77
2023/11/29 00:47:31;;;;;;;19.45;12.85;;;5.60;99.90;;;;;;5087541;28;20044;-77
2023/11/29 00:49:59;;;;;;;17.55;12.43;;;5.70;99.90;;;;;;5082781;28;20728;-74
2023/11/29 00:55:49;;;;;;;15.90;12.43;;;5.70;99.90;;;;;;5081379;28;20068;-75
2023/11/29 00:58:34;;;;;;;18.02;13.00;;;5.60;99.90;;;;;;5081459;28;20036;-75
2023/11/29 01:01:02;;;;;;;18.45;12.93;;;5.60;99.90;;;;;;5085898;28;20030;-75
2023/11/29 01:03:46;;;;;;;14.88;11.98;;;5.50;99.90;;;;;;5081956;28;20035;-74
2023/11/29 01:06:13;;;;;;;13.35;11.25;;;5.50;99.90;;;;;;5080951;28;20135;-75
2023/11/29 01:08:58;;;;;;;16.92;12.52;;;5.50;99.90;;;;;;5082280;28;20051;-75
2023/11/29 01:11:25;;;;;;;17.42;14.10;;;5.60;99.90;;;;;;5078097;28;20078;-75
2023/11/29 01:13:53;;;;;;;21.77;14.38;;;5.50;99.90;;;;;;5074965;28;20052;-76
2023/11/29 01:16:21;;;;;;;17.92;14.52;;;5.40;99.90;;;;;;5084279;28;20063;-76
2023/11/29 01:18:48;;;;;;;17.77;14.40;;;5.50;99.90;;;;;;5082041;28;20056;-75
2023/11/29 01:21:18;;;;;;;25.10;18.25;;;5.60;99.90;;;;;;5084736;28;20041;-74
2023/11/29 01:23:57;;;;;;;28.42;16.48;;;5.40;99.90;;;;;;5098731;28;20219;-76
2023/11/29 01:26:25;;;;;;;26.05;17.33;;;5.40;99.90;;;;;;5078406;28;20085;-72
2023/11/29 01:28:52;;;;;;;23.05;16.23;;;5.40;99.90;;;;;;5082100;28;20092;-78
2023/11/29 01:31:25;;;;;;;23.35;16.73;;;5.50;99.90;;;;;;5084122;28;20125;-78
2023/11/29 01:33:53;;;;;;;22.15;16.08;;;5.50;99.90;;;;;;5082013;28;20483;-78
2023/11/29 01:36:21;;;;;;;26.52;17.95;;;5.40;99.90;;;;;;5081987;28;20051;-75
2023/11/29 01:38:50;;;;;;;25.20;18.98;;;5.40;99.90;;;;;;5080706;28;20024;-76
2023/11/29 01:41:17;;;;;;;40.35;20.95;;;5.40;99.90;;;;;;5082149;28;20137;-76
2023/11/29 01:43:45;;;;;;;31.80;20.15;;;5.30;99.90;;;;;;5083521;28;20051;-77
2023/11/29 01:46:13;;;;;;;30.60;20.00;;;5.30;99.90;;;;;;5083527;28;20036;-75
2023/11/29 01:48:41;;;;;;;27.15;19.42;;;5.40;99.90;;;;;;5083076;28;20036;-75
2023/11/29 01:51:08;;;;;;;28.95;19.88;;;5.40;99.90;;;;;;5085363;28;20122;-76
2023/11/29 01:53:37;;;;;;;28.10;19.88;;;5.40;99.90;;;;;;5080047;28;20055;-74
2023/11/29 01:56:07;;;;;;;28.15;19.17;;;5.40;99.90;;;;;;5083238;28;20410;-75
2023/11/29 01:58:34;;;;;;;30.10;19.42;;;5.30;99.90;;;;;;5084433;28;20028;-74
2023/11/29 02:01:02;;;;;;;27.00;19.25;;;5.30;99.90;;;;;;5081420;28;20024;-74
2023/11/29 02:03:29;;;;;;;29.20;19.50;;;5.40;99.90;;;;;;5082527;28;20040;-74
2023/11/29 02:05:57;;;;;;;34.05;19.75;;;5.40;99.90;;;;;;5085975;28;20378;-73
2023/11/29 02:08:26;;;;;;;28.98;19.58;;;5.40;99.90;;;;;;5081849;28;20036;-76
2023/11/29 02:10:53;;;;;;;27.98;20.15;;;5.40;99.90;;;;;;5084826;28;20383;-75
2023/11/29 02:13:20;;;;;;;27.73;18.90;;;5.40;99.90;;;;;;5082593;28;20030;-73
2023/11/29 02:15:48;;;;;;;28.30;18.63;;;5.50;99.90;;;;;;5081795;28;20405;-73
2023/11/29 02:18:15;;;;;;;26.45;19.08;;;5.50;99.90;;;;;;5084851;28;20043;-72
2023/11/29 02:20:43;;;;;;;25.55;19.05;;;5.60;99.90;;;;;;5082144;28;20036;-71
2023/11/29 02:23:23;;;;;;;27.52;19.45;;;5.60;99.90;;;;;;5079372;28;20028;-72
2023/11/29 02:25:51;;;;;;;28.55;18.63;;;5.60;99.90;;;;;;5084670;28;20036;-74
2023/11/29 02:28:18;;;;;;;25.73;19.42;;;5.60;99.90;;;;;;5089006;28;20039;-71
2023/11/29 02:30:45;;;;;;;24.30;18.73;;;5.60;99.90;;;;;;5082597;28;20062;-72
2023/11/29 02:33:13;;;;;;;27.75;18.38;;;5.60;99.90;;;;;;5085301;28;20052;-73
2023/11/29 02:35:40;;;;;;;26.00;18.23;;;5.70;99.90;;;;;;5083401;28;20050;-74
2023/11/29 02:38:09;;;;;;;26.73;18.80;;;5.70;99.90;;;;;;5086025;28;20454;-73
2023/11/29 02:40:36;;;;;;;24.25;18.63;;;5.70;99.90;;;;;;5081165;28;20041;-76
2023/11/29 02:43:03;;;;;;;27.42;19.27;;;5.70;99.90;;;;;;5084110;28;20058;-75
2023/11/29 02:45:32;;;;;;;28.88;20.52;;;5.70;99.90;;;;;;5078831;28;20052;-75
2023/11/29 02:47:59;;;;;;;37.10;21.08;;;5.60;99.90;;;;;;5084788;28;20115;-75
2023/11/29 02:50:27;;;;;;;32.80;20.80;;;5.60;99.90;;;;;;5081842;28;20048;-74
2023/11/29 02:52:54;;;;;;;32.67;20.67;;;5.60;99.90;;;;;;5080040;28;20102;-76
2023/11/29 02:55:22;;;;;;;25.70;18.77;;;5.60;99.90;;;;;;5081840;28;20126;-75
2023/11/29 02:57:50;;;;;;;28.52;19.83;;;5.70;99.90;;;;;;5081208;28;20471;-74
2023/11/29 03:00:18;;;;;;;30.45;18.63;;;5.50;99.90;;;;;;5079346;28;20052;-76
2023/11/29 03:02:45;;;;;;;28.75;19.10;;;5.60;99.90;;;;;;5066956;28;20047;-73
2023/11/29 03:05:12;;;;;;;30.80;20.25;;;5.70;99.90;;;;;;5081838;28;20032;-74
2023/11/29 03:07:40;;;;;;;34.30;20.15;;;5.70;99.90;;;;;;5083777;28;20047;-72
2023/11/29 03:10:07;;;;;;;31.08;20.55;;;5.50;99.90;;;;;;5081309;28;20056;-75
2023/11/29 03:12:35;;;;;;;30.70;20.42;;;5.50;99.90;;;;;;5081147;28;20036;-73
2023/11/29 03:15:02;;;;;;;34.78;20.73;;;5.50;99.90;;;;;;5088130;28;20047;-72
2023/11/29 03:17:29;;;;;;;38.03;21.48;;;5.40;99.90;;;;;;5080905;28;20533;-72
2023/11/29 03:19:57;;;;;;;34.63;19.30;;;5.40;99.90;;;;;;5084101;28;20115;-72
2023/11/29 03:22:24;;;;;;;37.75;19.70;;;5.50;99.90;;;;;;5084366;28;20536;-72
2023/11/29 03:24:52;;;;;;;32.70;19.30;;;5.60;99.90;;;;;;5087530;28;20043;-75
2023/11/29 03:27:19;;;;;;;28.25;19.00;;;5.70;99.90;;;;;;5084368;28;20433;-73
2023/11/29 03:29:46;;;;;;;25.42;17.23;;;5.70;99.90;;;;;;5087901;28;20048;-73
2023/11/29 03:32:14;;;;;;;25.77;17.33;;;5.80;99.90;;;;;;5083172;28;20040;-74
2023/11/29 03:34:41;;;;;;;26.17;16.52;;;5.80;99.90;;;;;;5088428;28;20040;-73
2023/11/29 03:37:09;;;;;;;25.00;16.55;;;5.90;99.90;;;;;;5083821;28;20032;-74
2023/11/29 03:39:36;;;;;;;32.75;16.88;;;5.90;99.90;;;;;;5098543;28;20487;-75
2023/11/29 03:42:03;;;;;;;24.98;15.65;;;5.90;99.90;;;;;;5085208;28;20036;-74
2023/11/29 03:44:31;;;;;;;25.45;15.23;;;5.90;99.90;;;;;;5082785;28;20052;-75
2023/11/29 03:46:58;;;;;;;23.05;15.30;;;5.90;99.90;;;;;;5085156;28;20471;-74
2023/11/29 03:49:25;;;;;;;23.90;16.05;;;6.00;99.90;;;;;;5083677;28;20063;-75
2023/11/29 03:51:53;;;;;;;22.58;15.43;;;6.00;99.90;;;;;;5088855;28;20110;-75
2023/11/29 03:54:20;;;;;;;21.80;14.68;;;6.00;99.90;;;;;;5086990;28;20067;-77
2023/11/29 03:56:47;;;;;;;23.63;15.85;;;6.00;99.90;;;;;;5083095;28;20616;-75
2023/11/29 03:59:15;;;;;;;23.88;16.48;;;6.10;99.90;;;;;;5081235;28;20036;-75
2023/11/29 04:01:42;;;;;;;24.35;16.52;;;6.10;99.90;;;;;;5083614;28;20409;-73
2023/11/29 04:04:10;;;;;;;24.08;15.65;;;6.10;99.90;;;;;;5081327;28;20028;-72
2023/11/29 04:06:37;;;;;;;21.23;14.98;;;6.00;99.90;;;;;;5084231;28;20382;-75
2023/11/29 04:09:04;;;;;;;25.23;15.88;;;6.00;99.90;;;;;;5082498;28;20473;-74
2023/11/29 04:11:32;;;;;;;22.88;15.63;;;6.10;99.90;;;;;;5089512;28;20543;-74
2023/11/29 04:13:59;;;;;;;23.30;15.65;;;6.10;99.90;;;;;;5083637;28;20032;-72
2023/11/29 04:16:27;;;;;;;22.92;16.02;;;6.10;99.90;;;;;;5077396;28;20114;-74
2023/11/29 04:18:55;;;;;;;20.75;15.95;;;6.10;99.90;;;;;;5083201;28;20035;-74
2023/11/29 04:21:27;;;;;;;24.23;15.70;;;6.10;99.90;;;;;;5082921;28;20043;-73
2023/11/29 04:23:55;;;;;;;22.52;16.52;;;6.10;99.90;;;;;;5082883;28;20040;-73
2023/11/29 04:26:41;;;;;;;26.40;17.02;;;6.10;99.90;;;;;;5086716;28;20032;-73
2023/11/29 04:29:10;;;;;;;21.15;15.30;;;6.10;99.90;;;;;;5084209;28;20105;-74
2023/11/29 04:31:39;;;;;;;25.85;16.70;;;6.10;99.90;;;;;;5088830;28;20124;-72
2023/11/29 04:34:10;;;;;;;23.63;16.60;;;6.10;99.90;;;;;;5083797;28;20025;-75
2023/11/29 04:36:54;;;;;;;22.83;16.83;;;6.10;99.90;;;;;;5083246;28;20107;-73
2023/11/29 04:39:21;;;;;;;21.38;14.95;;;6.10;99.90;;;;;;5086401;28;20036;-76
2023/11/29 04:41:49;;;;;;;21.70;16.60;;;6.10;99.90;;;;;;5082634;28;20040;-74
2023/11/29 04:44:17;;;;;;;23.45;16.50;;;6.10;99.90;;;;;;5086414;28;20060;-73
2023/11/29 04:46:44;;;;;;;25.02;16.55;;;6.10;99.90;;;;;;5082574;28;20036;-72
2023/11/29 04:49:11;;;;;;;26.50;17.35;;;6.00;99.90;;;;;;5084773;28;20028;-73
2023/11/29 04:51:39;;;;;;;28.75;18.25;;;5.90;99.90;;;;;;5084409;28;20079;-73
2023/11/29 04:54:06;;;;;;;26.58;18.70;;;5.90;99.90;;;;;;5082892;28;20428;-76
2023/11/29 04:56:33;;;;;;;28.17;18.20;;;5.80;99.90;;;;;;5076627;28;20048;-74
2023/11/29 04:59:01;;;;;;;24.80;18.13;;;5.70;99.90;;;;;;5084166;28;20111;-74
2023/11/29 05:01:28;;;;;;;27.63;18.65;;;5.70;99.90;;;;;;5086525;28;20490;-75
2023/11/29 05:03:56;;;;;;;29.63;19.13;;;5.60;99.90;;;;;;5080997;28;20052;-75
2023/11/29 05:06:25;;;;;;;26.05;18.05;;;5.80;99.90;;;;;;5081246;28;20032;-71
2023/11/29 05:08:52;;;;;;;31.02;18.13;;;5.80;99.90;;;;;;5085258;28;20044;-73
2023/11/29 05:11:19;;;;;;;22.15;17.13;;;5.80;99.90;;;;;;5079514;28;20399;-72
2023/11/29 05:13:47;;;;;;;25.90;17.17;;;5.80;99.90;;;;;;5081575;28;20547;-74
2023/11/29 05:16:14;;;;;;;24.05;16.75;;;5.70;99.90;;;;;;5084457;28;20103;-74
2023/11/29 05:18:41;;;;;;;24.27;17.58;;;5.60;99.90;;;;;;5085023;28;20032;-73
2023/11/29 05:21:09;;;;;;;26.13;18.13;;;5.60;99.90;;;;;;5080715;28;20052;-74
2023/11/29 05:23:36;;;;;;;25.30;17.25;;;5.60;99.90;;;;;;5079338;28;20475;-73
2023/11/29 05:26:03;;;;;;;25.95;18.15;;;5.60;99.90;;;;;;5078893;28;20390;-75
2023/11/29 05:28:35;;;;;;;27.98;16.80;;;5.60;99.90;;;;;;5085787;28;20064;-73
2023/11/29 05:31:03;;;;;;;24.10;17.23;;;5.50;99.90;;;;;;5085218;28;20509;-74
2023/11/29 05:33:30;;;;;;;23.83;17.42;;;5.50;99.90;;;;;;5084852;28;20421;-74
2023/11/29 05:35:58;;;;;;;27.17;18.27;;;5.50;99.90;;;;;;5083113;28;20034;-77
2023/11/29 05:38:25;;;;;;;26.02;18.55;;;5.60;99.90;;;;;;5084109;28;20135;-77
2023/11/29 05:40:54;;;;;;;29.83;19.02;;;5.70;99.90;;;;;;5082979;28;20110;-75
2023/11/29 05:43:22;;;;;;;30.17;19.42;;;5.70;99.90;;;;;;5082169;28;20080;-75
2023/11/29 05:45:49;;;;;;;27.92;19.63;;;5.70;99.90;;;;;;5079242;28;20028;-75
2023/11/29 05:48:16;;;;;;;27.23;18.45;;;5.80;99.90;;;;;;5081002;28;20040;-75
2023/11/29 05:50:44;;;;;;;25.23;18.92;;;5.70;99.90;;;;;;5081730;28;20045;-75
2023/11/29 05:53:11;;;;;;;24.80;17.77;;;5.70;99.90;;;;;;5084142;28;20112;-72
2023/11/29 05:55:38;;;;;;;30.50;19.27;;;5.70;99.90;;;;;;5079112;28;20045;-74
2023/11/29 05:58:06;;;;;;;29.27;18.80;;;5.70;99.90;;;;;;5079209;28;20035;-81
2023/11/29 06:00:33;;;;;;;48.53;30.77;;;5.70;99.90;;;;;;5085169;28;20032;-87
2023/11/29 06:03:00;;;;;;;114.57;62.28;;;5.90;99.90;;;;;;5086133;28;20417;-80
2023/11/29 06:05:29;;;;;;;42.17;28.25;;;6.10;99.90;;;;;;5085099;28;20482;-74
2023/11/29 06:07:57;;;;;;;34.72;23.05;;;6.10;99.90;;;;;;5082855;28;20059;-78
2023/11/29 06:10:25;;;;;;;68.60;39.78;;;6.30;99.90;;;;;;5083506;28;20039;-71
2023/11/29 06:12:53;;;;;;;84.53;50.55;;;6.80;99.90;;;;;;5079768;28;20071;-71
2023/11/29 06:15:20;;;;;;;36.08;24.50;;;7.00;99.90;;;;;;5085004;28;20028;-73
2023/11/29 06:17:48;;;;;;;28.95;19.45;;;6.80;99.90;;;;;;5077967;28;20032;-73
2023/11/29 06:20:18;;;;;;;28.08;18.15;;;6.50;99.90;;;;;;5085567;28;20041;-73
2023/11/29 06:22:46;;;;;;;27.00;17.92;;;6.40;99.90;;;;;;5086297;28;20036;-74
2023/11/29 06:25:14;;;;;;;26.92;17.92;;;6.30;99.90;;;;;;5085418;28;20501;-73
2023/11/29 06:27:44;;;;;;;26.70;18.05;;;6.20;99.90;;;;;;5083837;28;20109;-72
2023/11/29 06:30:12;;;;;;;26.83;18.70;;;6.30;99.90;;;;;;5080376;28;20220;-73
2023/11/29 06:32:41;;;;;;;30.77;18.83;;;6.40;99.90;;;;;;5083317;28;20111;-75
2023/11/29 06:35:12;;;;;;;26.58;18.58;;;6.40;99.90;;;;;;5084782;28;20039;-76
2023/11/29 06:37:42;;;;;;;25.50;18.13;;;6.30;99.90;;;;;;5081306;28;20044;-74
2023/11/29 06:40:16;;;;;;;27.10;17.95;;;6.40;99.90;;;;;;5081223;28;20405;-72
2023/11/29 06:42:47;;;;;;;28.45;19.10;;;6.40;99.90;;;;;;5081105;28;20494;-73
2023/11/29 06:45:19;;;;;;;29.35;20.67;;;6.50;99.90;;;;;;5082889;28;20071;-73
2023/11/29 06:47:47;;;;;;;36.50;22.77;;;6.60;99.90;;;;;;5080230;28;20402;-75
2023/11/29 06:50:15;;;;;;;88.80;50.85;;;6.60;99.90;;;;;;5088070;28;20036;-77
2023/11/29 06:52:43;;;;;;;95.10;55.30;;;6.90;99.90;;;;;;5084457;28;20039;-75
2023/11/29 06:55:13;;;;;;;;;;;7.10;99.90;;;;;;5084513;28;20127;-74
2023/11/29 06:57:40;;;;;;;30.42;22.60;;;7.10;99.90;;;;;;5081623;28;19916;-76
2023/11/29 07:00:11;;;;;;;32.15;21.67;;;7.00;99.90;;;;;;5084546;28;20119;-74
2023/11/29 07:02:39;;;;;;;31.27;20.80;;;6.90;99.90;;;;;;5087096;28;20124;-71
2023/11/29 07:05:08;;;;;;;34.72;22.73;;;6.40;99.90;;;;;;5087422;28;20036;-73
2023/11/29 07:07:35;;;;;;;36.60;23.02;;;6.10;99.90;;;;;;5083788;28;20044;-74
2023/11/29 07:10:05;;;;;;;39.83;23.98;;;6.00;99.90;;;;;;5087283;28;20450;-73
2023/11/29 07:12:32;;;;;;;36.72;23.02;;;6.10;99.90;;;;;;5099109;28;20376;-76
2023/11/29 07:15:00;;;;;;;28.25;20.27;;;6.00;99.90;;;;;;5083464;28;20028;-75
2023/11/29 07:17:27;;;;;;;26.75;18.80;;;5.90;99.90;;;;;;5088773;28;20388;-75
2023/11/29 07:19:55;;;;;;;27.38;19.20;;;5.80;99.90;;;;;;5088669;28;20431;-73
2023/11/29 07:22:24;;;;;;;26.00;19.63;;;5.70;99.90;;;;;;5087828;28;20085;-75
2023/11/29 07:24:52;;;;;;;29.35;20.77;;;5.60;99.90;;;;;;5081986;28;20101;-75
2023/11/29 07:27:20;;;;;;;32.00;20.15;;;5.70;99.90;;;;;;5084048;28;20376;-75
2023/11/29 07:29:47;;;;;;;34.65;21.63;;;5.70;99.90;;;;;;5086509;28;20094;-74
2023/11/29 07:32:15;;;;;;;31.35;19.98;;;5.70;99.90;;;;;;5089467;28;20055;-73
2023/11/29 07:34:47;;;;;;;32.08;20.67;;;5.90;99.90;;;;;;5089310;28;20039;-73
2023/11/29 07:37:19;;;;;;;31.55;19.15;;;6.20;99.90;;;;;;5084422;28;20031;-74
2023/11/29 07:39:46;;;;;;;28.00;18.17;;;6.40;99.90;;;;;;5085349;28;20032;-74
2023/11/29 07:42:14;;;;;;;29.55;19.27;;;6.70;99.90;;;;;;5089020;28;20059;-75
2023/11/29 07:44:41;;;;;;;28.60;19.65;;;7.10;99.90;;;;;;5085779;28;20068;-73
2023/11/29 07:47:09;;;;;;;28.00;18.23;;;7.40;99.90;;;;;;5083687;28;20028;-74
2023/11/29 07:49:36;;;;;;;27.80;18.08;;;7.40;99.90;;;;;;5087769;28;20035;-74
2023/11/29 07:52:03;;;;;;;22.67;17.08;;;7.20;99.90;;;;;;5086166;28;20471;-76
2023/11/29 07:54:31;;;;;;;28.13;17.80;;;7.40;99.90;;;;;;5083390;28;20044;-75
2023/11/29 07:56:58;;;;;;;25.15;17.17;;;7.30;99.90;;;;;;5086493;28;20042;-76
2023/11/29 07:59:27;;;;;;;66.53;22.13;;;7.50;99.90;;;;;;5087119;28;20031;-75
2023/11/29 08:01:54;;;;;;;40.53;20.20;;;8.00;99.90;;;;;;5078526;28;20045;-76
2023/11/29 08:04:22;;;;;;;20.38;14.98;;;8.20;99.90;;;;;;5087480;28;20120;-74
2023/11/29 08:06:50;;;;;;;24.70;16.60;;;8.10;99.90;;;;;;5086250;28;21720;-73
2023/11/29 08:09:18;;;;;;;25.60;16.55;;;8.00;99.90;;;;;;5084430;28;20108;-74
2023/11/29 08:11:45;;;;;;;30.83;17.73;;;8.40;99.90;;;;;;5084291;28;20044;-76
2023/11/29 08:14:13;;;;;;;25.20;15.73;;;8.60;99.90;;;;;;5086789;28;20498;-74
2023/11/29 08:16:40;;;;;;;25.23;15.68;;;8.30;99.90;;;;;;5088521;28;20279;-74
2023/11/29 08:19:08;;;;;;;29.92;18.80;;;8.40;99.90;;;;;;5083570;28;20036;-75
2023/11/29 08:21:35;;;;;;;25.52;15.48;;;7.90;99.90;;;;;;5080414;28;20349;-73
2023/11/29 08:24:03;;;;;;;28.85;16.55;;;7.80;99.90;;;;;;5081987;28;20040;-77
2023/11/29 08:26:31;;;;;;;26.30;17.65;;;7.70;99.90;;;;;;5085879;28;20032;-75
2023/11/29 08:28:58;;;;;;;28.10;18.05;;;8.00;99.90;;;;;;5083670;28;20040;-76
2023/11/29 08:31:27;;;;;;;26.70;16.88;;;8.20;99.90;;;;;;5084025;28;20449;-75
2023/11/29 08:33:54;;;;;;;27.65;16.45;;;8.40;99.90;;;;;;5083158;28;20032;-77
2023/11/29 08:36:21;;;;;;;23.33;15.65;;;8.40;99.90;;;;;;5088318;28;20467;-76
2023/11/29 08:38:51;;;;;;;22.27;14.07;;;8.50;99.90;;;;;;5086935;28;20425;-74
2023/11/29 08:41:19;;;;;;;25.73;15.32;;;8.60;99.90;;;;;;5084318;28;20096;-74
2023/11/29 08:43:47;;;;;;;21.20;14.60;;;8.60;99.90;;;;;;5079216;28;20034;-73
2023/11/29 08:46:14;;;;;;;21.60;13.70;;;8.50;99.90;;;;;;5081149;28;20043;-75
2023/11/29 08:48:42;;;;;;;21.45;15.43;;;8.50;99.90;;;;;;5080404;28;20131;-74
2023/11/29 08:51:10;;;;;;;22.35;15.00;;;8.40;99.90;;;;;;5078512;28;20168;-74
2023/11/29 08:53:37;;;;;;;26.20;16.77;;;8.40;99.90;;;;;;5080010;28;20033;-75
2023/11/29 08:56:17;;;;;;;27.48;17.10;;;8.30;99.90;;;;;;5083993;28;20062;-77
2023/11/29 08:58:46;;;;;;;24.98;16.27;;;8.40;99.90;;;;;;5078720;28;20037;-76
2023/11/29 09:01:20;;;;;;;26.10;16.75;;;8.30;99.90;;;;;;5081083;28;20115;-75
2023/11/29 09:03:48;;;;;;;23.92;15.90;;;8.30;99.90;;;;;;5083545;28;20141;-74
2023/11/29 09:06:16;;;;;;;23.55;16.13;;;8.30;99.90;;;;;;5082155;28;20046;-76
2023/11/29 09:08:44;;;;;;;24.25;16.40;;;8.30;99.90;;;;;;5085670;28;20068;-74
2023/11/29 09:11:12;;;;;;;26.52;16.58;;;8.30;99.90;;;;;;5081896;28;20541;-75
2023/11/29 09:13:39;;;;;;;26.20;17.08;;;8.30;99.90;;;;;;5084536;28;20089;-75
2023/11/29 09:16:07;;;;;;;21.77;15.95;;;8.30;99.90;;;;;;5082739;28;20105;-75
2023/11/29 09:18:36;;;;;;;23.40;15.73;;;8.30;99.90;;;;;;5082516;28;20040;-76
2023/11/29 09:21:04;;;;;;;23.73;16.50;;;8.20;99.90;;;;;;5081556;28;20066;-74
2023/11/29 09:23:34;;;;;;;22.83;16.25;;;8.10;99.90;;;;;;5081078;28;20046;-75
2023/11/29 09:26:02;;;;;;;23.25;16.80;;;8.10;99.90;;;;;;5082174;28;20380;-75
2023/11/29 09:28:29;;;;;;;25.95;16.63;;;8.10;99.90;;;;;;5082941;28;20040;-72
2023/11/29 09:31:00;;;;;;;26.33;16.90;;;8.20;99.90;;;;;;5084382;28;20040;-75
2023/11/29 09:33:29;;;;;;;26.58;17.40;;;8.20;99.90;;;;;;5081694;28;20048;-76
2023/11/29 09:35:57;;;;;;;24.55;17.65;;;8.30;99.90;;;;;;5084793;28;20074;-74
2023/11/29 09:38:24;;;;;;;33.70;21.90;;;8.30;99.90;;;;;;5083436;28;20097;-74
2023/11/29 09:40:51;;;;;;;30.80;21.25;;;8.40;99.90;;;;;;5082045;28;20059;-75
2023/11/29 09:43:19;;;;;;;28.67;18.73;;;8.40;99.90;;;;;;5080442;28;20051;-75
2023/11/29 09:45:47;;;;;;;27.33;17.63;;;8.30;99.90;;;;;;5084240;28;20071;-76
2023/11/29 09:48:15;;;;;;;27.33;17.77;;;8.30;99.90;;;;;;5081311;28;20039;-78
2023/11/29 09:50:43;;;;;;;25.17;18.40;;;8.30;99.90;;;;;;5083772;28;20032;-75
2023/11/29 09:53:12;;;;;;;25.95;17.70;;;8.40;99.90;;;;;;5084540;28;20117;-75
2023/11/29 09:55:40;;;;;;;28.67;18.70;;;8.50;99.90;;;;;;5077847;28;20110;-76
2023/11/29 09:58:07;;;;;;;25.65;18.23;;;8.50;99.90;;;;;;5082192;28;20115;-74
2023/11/29 10:00:35;;;;;;;25.60;16.95;;;8.60;99.90;;;;;;5081491;28;20093;-74
2023/11/29 10:03:13;;;;;;;27.33;17.45;;;8.60;99.90;;;;;;5081698;28;20056;-78
2023/11/29 10:05:47;;;;;;;28.30;18.77;;;8.60;99.90;;;;;;5083093;28;20059;-75
2023/11/29 10:08:21;;;;;;;29.48;18.85;;;8.60;99.90;;;;;;5082381;28;20036;-75
2023/11/29 10:10:52;;;;;;;26.27;17.83;;;8.50;99.90;;;;;;5082860;28;20534;-75
2023/11/29 10:13:37;;;;;;;28.40;17.60;;;8.60;99.90;;;;;;5080715;28;20056;-75
2023/11/29 10:16:06;;;;;;;24.67;17.58;;;8.70;99.90;;;;;;5081228;28;20047;-75
2023/11/29 10:18:33;;;;;;;25.40;16.45;;;8.80;99.90;;;;;;5079188;28;20155;-75
2023/11/29 10:21:01;;;;;;;22.83;16.05;;;9.00;99.90;;;;;;5081050;28;20032;-76
2023/11/29 10:23:39;;;;;;;24.50;15.93;;;9.30;99.90;;;;;;5079601;28;20359;-75
2023/11/29 10:26:10;;;;;;;22.85;14.77;;;9.80;99.90;;;;;;5079838;28;20032;-74
2023/11/29 10:28:40;;;;;;;22.08;14.60;;;10.10;99.90;;;;;;5079592;28;20078;-76
2023/11/29 10:31:26;;;;;;;20.08;14.40;;;10.20;99.90;;;;;;5086599;28;20047;-73
2023/11/29 10:33:55;;;;;;;22.05;15.23;;;9.30;99.90;;;;;;5088562;28;20068;-72
2023/11/29 10:36:24;;;;;;;28.00;16.58;;;9.40;99.90;;;;;;5087869;28;20035;-76
2023/11/29 10:38:53;;;;;;;25.23;15.82;;;9.60;99.90;;;;;;5085442;28;20396;-76
2023/11/29 10:41:23;;;;;;;23.48;15.73;;;9.80;99.90;;;;;;5086309;28;20036;-75
2023/11/29 10:43:52;;;;;;;;;;;9.90;99.90;;;;;;5084696;28;20068;-73
2023/11/29 10:46:28;;;;;;;22.27;15.02;;;10.00;99.90;;;;;;5087178;28;20313;-75
2023/11/29 10:49:03;;;;;;;18.13;13.85;;;11.20;99.90;;;;;;5082418;28;20048;-74
2023/11/29 10:51:33;;;;;;;22.98;14.68;;;14.90;99.90;;;;;;5085836;28;20043;-72
2023/11/29 10:54:01;;;;;;;18.63;14.23;;;19.40;99.10;;;;;;5087026;28;20040;-70
2023/11/29 10:56:31;;;;;;;21.60;14.13;;;18.10;95.60;;;;;;5088377;28;20039;-71
2023/11/29 10:59:31;;;;;;;24.60;15.10;;;14.30;99.90;;;;;;5086957;28;20051;-73
2023/11/29 11:01:59;;;;;;;18.85;14.15;;;13.50;99.90;;;;;;5086983;28;20048;-74
2023/11/29 11:04:34;;;;;;;21.00;15.27;;;12.60;99.90;;;;;;5091386;28;20028;-75
2023/11/29 11:07:05;;;;;;;20.23;14.05;;;12.20;99.90;;;;;;5086772;28;20031;-76
2023/11/29 11:09:36;;;;;;;18.05;12.32;;;12.50;99.90;;;;;;5085502;28;20093;-79
2023/11/29 11:12:06;;;;;;;18.85;11.52;;;14.70;99.90;;;;;;5086791;28;20391;-72
2023/11/29 11:14:34;;;;;;;17.25;11.35;;;20.40;96.70;;;;;;5083157;28;20039;-79
2023/11/29 11:17:18;;;;;;;15.05;11.05;;;18.50;93.30;;;;;;5091128;28;20028;-78
2023/11/29 11:19:47;;;;;;;18.92;12.18;;;21.80;90.20;;;;;;5083287;28;20036;-79
2023/11/29 11:22:41;;;;;;;17.63;11.70;;;17.90;92.30;;;;;;5087946;28;20037;-74
2023/11/29 11:25:15;;;;;;;16.80;11.65;;;20.20;91.20;;;;;;5072150;28;20044;-74
2023/11/29 11:27:47;;;;;;;14.88;11.45;;;23.90;83.20;;;;;;5087990;28;20449;-79
2023/11/29 11:30:16;;;;;;;18.63;11.43;;;25.50;75.70;;;;;;5082194;28;20128;-76
2023/11/29 11:32:51;;;;;;;14.15;10.82;;;26.00;71.50;;;;;;5083291;28;20467;-80
2023/11/29 11:35:23;;;;;;;27.95;12.30;;;26.40;67.00;;;;;;5085450;28;20813;-78
2023/11/29 11:37:53;;;;;;;13.10;9.93;;;26.80;65.90;;;;;;5086390;28;20048;-72
2023/11/29 11:40:28;;;;;;;14.25;9.95;;;26.30;64.60;;;;;;5089679;28;20471;-75
2023/11/29 11:42:56;;;;;;;16.08;10.73;;;24.50;67.30;;;;;;5089165;28;20071;-76
2023/11/29 11:45:29;;;;;;;13.68;10.45;;;24.50;66.20;;;;;;5087759;28;20093;-75
2023/11/29 11:47:56;;;;;;;12.45;8.82;;;22.80;69.30;;;;;;5085645;28;20033;-77
2023/11/29 11:50:41;;;;;;;11.88;9.05;;;19.50;74.80;;;;;;5090501;28;20576;-79
2023/11/29 11:53:09;;;;;;;13.25;9.02;;;17.60;81.90;;;;;;5086298;28;20086;-79
2023/11/29 11:55:39;;;;;;;13.55;8.95;;;17.30;83.30;;;;;;5080797;28;20115;-72
2023/11/29 11:58:09;;;;;;;12.75;8.10;;;16.80;84.10;;;;;;5080076;28;20032;-73
2023/11/29 12:00:53;;;;;;;13.00;8.57;;;17.00;85.70;;;;;;5083202;28;20027;-75
2023/11/29 12:03:22;;;;;;;12.15;8.75;;;16.90;85.50;;;;;;5087891;28;20387;-77
2023/11/29 12:05:50;;;;;;;15.10;8.48;;;16.10;86.90;;;;;;5090270;28;20062;-77
2023/11/29 12:08:17;;;;;;;12.93;8.10;;;16.00;89.50;;;;;;5085510;28;20418;-78
2023/11/29 12:10:45;;;;;;;13.40;9.18;;;15.40;89.80;;;;;;5084005;28;20038;-76
2023/11/29 12:13:12;;;;;;;12.95;9.57;;;14.90;90.90;;;;;;5080041;28;20043;-78
2023/11/29 12:15:39;;;;;;;15.02;9.98;;;14.20;91.90;;;;;;5096516;28;20437;-77
2023/11/29 12:18:17;;;;;;;16.05;11.55;;;13.90;93.10;;;;;;5085701;28;20422;-74
2023/11/29 12:20:46;;;;;;;12.57;9.85;;;13.50;93.70;;;;;;5085459;28;20392;-77
2023/11/29 12:23:14;;;;;;;14.00;9.40;;;12.50;95.20;;;;;;5086472;28;20036;-76
2023/11/29 12:25:43;;;;;;;11.40;9.48;;;11.20;97.00;;;;;;5087383;28;20075;-78
2023/11/29 12:28:11;;;;;;;14.75;9.82;;;10.40;98.90;;;;;;5085387;28;20395;-78
2023/11/29 12:30:41;;;;;;;11.95;9.57;;;10.10;99.90;;;;;;5082211;28;20090;-77
2023/11/29 12:33:08;;;;;;;12.93;10.35;;;9.70;99.90;;;;;;5090882;28;20044;-77
2023/11/29 12:35:36;;;;;;;13.90;9.70;;;9.80;99.90;;;;;;5082578;28;20391;-77
2023/11/29 12:38:03;;;;;;;12.40;9.52;;;9.70;99.90;;;;;;5087158;28;20031;-75
2023/11/29 12:40:31;;;;;;;10.32;8.73;;;9.70;99.90;;;;;;5089621;28;20044;-76
2023/11/29 12:43:15;;;;;;;10.73;8.25;;;9.20;99.90;;;;;;5081281;28;20032;-82
2023/11/29 12:45:42;;;;;;;13.43;8.57;;;9.20;99.90;;;;;;5090945;28;20023;-77
2023/11/29 12:48:10;;;;;;;10.48;8.15;;;9.10;99.90;;;;;;5084313;28;20028;-75